メインページ
METAR-TAF:

METAR-TAF

空港 :

セントジョンズ, ニューファンドランド・ラブラドール州, カナダ

セントジョンズ国際空港

緯度: 47-37N, 経度: 052-44W, 海抜: 134m

現時点の気象観測

当レポートは20分前の23:00(UTC)に作成
北東の風 13kt
気温 0°C
湿度 100%
気圧 1014 hPa
視程: 19.3km
高度400ftの曇り

METAR: CYYT 272300Z 04013KT 12SM OVC004 00/M00 A2994 RMK SF8 SLP146

時間: 20:50 (23:20 UTC)

予報

当レポートは1時間2分前の22:18(UTC)に作成
予報は27日の 22時(UTC)から 28日の 18時(UTC)まで有効
北東の風 12kt
視程: 9.7km
高度400ftの曇り
27日の 22時(UTC)から 28日の 04時(UTC)まで一時的に
視程: 1.6km
高度300ftの曇り
28日の 0400時(UTC)から
北東の風 10kt
視程: 9.7km
高度300ftの雲は散在している
28日の 04時(UTC)から 28日の 12時(UTC)まで一時的に
視程: 1.6km
高度300ftの千切れ雲あり
確率 30%
28日の 04時(UTC)から 28日の 12時(UTC)まで
視程: 1.2km
28日の 1200時(UTC)から
東/北東の風 10kt
視程: 10km
高度800ftの千切れ雲あり
28日の 1600時(UTC)から
の風 10kt
視程: 10km
高度1200ftの千切れ雲あり

TAF: CYYT 272218Z 2722/2818 05012KT 6SM BR OVC004 TEMPO 2722/2804 1SM BR OVC003 FM280400 04010KT 6SM BR SCT003 TEMPO 2804/2812 1SM BR BKN003 PROB30 2804/2812 3/4SM BR FM281200 06010KT P6SM BKN008 FM281600 08010KT P6SM BKN012 RMK NXT FCST BY 280000Z

4,000以上の空港の気象観測と天気予報(METAR報とTAF報)

利用可能な観測所は地図上に黄色い丸と赤い丸で示す。

丸の上にカーソルを重ねると観測所名を参照できる。

次にクリックすると気象観測と天気予報を参照できる。

マップの切り替え:黒色「×」印の緑ボタンをクリックして拡大、「-」印の緑ボタンをクリックして縮小、緑色の三角印をクリックして隣りの地図に切り替え


METAR-TAF: